Airfield :
LOGIN :

Register | Disclaimer

   EN    FR    IT 

 










Legend :    VFR   Marginal VFR   IFR   Intensive IFR   Very Intensive IFR
Visi :
Ceiling :
>= 8 km
>= 3000ft
5 to 8 km
1000 to 3000 ft
1500m to 5 km
500 to 1000 ft
800 to 1500m
200 to 500 ft
< 800m
< 200 ft
Symbols :   Thunderstorms  Fog  Heavy snow  Heavy precipitations  Wind > 20 kt
SIGMETs :     Misc.  Thunderstorms  Icing  Turbulence  Mountain Waves  Volcanic Ashes







- Airport Elevation : 675 ft
- IATA code : RZE


EPRZ - Rzeszow-Jasionka

CURRENT METAR :
  • 220800Z 29011KT 9999 OVC015 09/05 Q1032

EXPIRED METARs :
  • 220730Z 28009KT 9999 OVC033 09/05 Q1031
  • 220700Z 28009KT 9999 OVC033 08/05 Q1031
  • 220630Z 27009KT 9999 BKN043 08/05 Q1031
  • 220600Z 26008KT 9999 BKN043 07/04 Q1030

TAF TAF EPRZ
Valid from the 22 at 06:00 until the 23 at 06:00 UTC


220530Z 2206/2306 28010KT 8000 BKN040
BECMG 2208/2211 OVC014
TEMPO 2212/2216 4000 BR BKN007 OVC010
BECMG 2217/2219 VRB02KT 4000 BR NSC
BECMG 2220/2223 0600 FG
BECMG 2223/2301 0300 FG BKN001
No reported NOTAMs for that airfield.



MET'MAP, your aeronautical weather chart ! - Copyright ORBIFLY December 2007 - Disclaimer

ORBIFLY MET'MAP TEAM :

Programming & Development : Alexandra Zaïnal
Concept & Development : Baudouin d'Aumeries
Co-Development & Prog : Marc-Olivier Méhu
Technical & hardware support : Manuel Goepfert

Contact : metmap@orbifly.com




SOURCES & CREDITS :

   NOAA